createdAt,value
2023-05-11T00:02:41.924Z,7.40
2023-05-11T00:06:15.838Z,7.55
2023-05-11T00:09:19.839Z,7.40
2023-05-11T00:12:38.760Z,8.00
2023-05-11T00:15:42.843Z,7.85
2023-05-11T00:18:59.004Z,7.70
2023-05-11T00:22:15.912Z,9.03
2023-05-11T00:25:44.020Z,7.85
2023-05-11T00:28:47.834Z,8.40
2023-05-11T00:32:06.883Z,7.00
2023-05-11T00:35:10.942Z,7.40
2023-05-11T00:38:43.907Z,8.67
2023-05-11T00:41:59.882Z,7.70
2023-05-11T00:45:15.836Z,7.77
2023-05-11T00:48:31.952Z,7.97
2023-05-11T00:51:59.906Z,7.20
2023-05-11T00:55:31.734Z,8.50
2023-05-11T00:59:02.890Z,9.27
2023-05-11T01:02:19.007Z,8.77
2023-05-11T01:05:46.884Z,9.97
2023-05-11T01:09:03.977Z,8.80
2023-05-11T01:12:37.080Z,8.10
2023-05-11T01:16:04.997Z,9.10
2023-05-11T01:19:35.953Z,9.10
2023-05-11T01:23:09.994Z,8.53
2023-05-11T01:26:49.965Z,9.45
2023-05-11T01:30:13.120Z,9.90
2023-05-11T01:33:48.044Z,10.37
2023-05-11T01:37:04.207Z,10.93
2023-05-11T01:40:35.074Z,11.40
2023-05-11T01:44:06.069Z,9.75
2023-05-11T01:47:37.184Z,10.17
2023-05-11T01:50:55.323Z,11.87
2023-05-11T01:54:26.141Z,9.70
2023-05-11T01:57:42.138Z,10.70
2023-05-11T02:01:14.223Z,10.47
2023-05-11T02:04:45.172Z,10.30
2023-05-11T02:08:03.618Z,11.85
2023-05-11T02:11:37.228Z,11.27
2023-05-11T02:15:05.205Z,10.45
2023-05-11T02:18:36.221Z,11.10
2023-05-11T02:22:07.377Z,11.10
2023-05-11T02:25:37.116Z,11.10
2023-05-11T02:29:09.150Z,13.10
2023-05-11T02:32:25.201Z,12.70
2023-05-11T02:35:56.327Z,13.43
2023-05-11T02:39:27.319Z,12.75
2023-05-11T02:42:59.374Z,11.95
2023-05-11T02:46:27.504Z,11.07
2023-05-11T02:49:58.393Z,12.73
2023-05-11T02:53:26.432Z,12.03
2023-05-11T02:56:54.267Z,11.47
2023-05-11T03:00:27.545Z,13.15
2023-05-11T03:03:43.391Z,12.75
2023-05-11T03:06:59.362Z,12.75
2023-05-11T03:10:27.323Z,13.27
2023-05-11T03:13:43.342Z,12.60
2023-05-11T03:17:15.337Z,11.93
2023-05-11T03:20:43.483Z,12.50
2023-05-11T03:24:11.363Z,12.25
2023-05-11T03:27:39.610Z,13.15
2023-05-11T03:31:08.416Z,12.70
2023-05-11T03:34:37.364Z,12.73
2023-05-11T03:38:08.587Z,12.65
2023-05-11T03:41:36.455Z,12.87
2023-05-11T03:45:05.482Z,12.83
2023-05-11T03:48:33.482Z,11.97
2023-05-11T03:52:05.566Z,11.40
2023-05-11T03:55:34.502Z,11.97
2023-05-11T03:59:04.441Z,12.40
2023-05-11T04:02:20.663Z,11.27
2023-05-11T04:05:36.574Z,12.30
2023-05-11T04:09:06.469Z,11.63
2023-05-11T04:12:25.573Z,12.13
2023-05-11T04:15:29.470Z,12.03
2023-05-11T04:18:45.560Z,10.60
2023-05-11T04:21:49.607Z,10.75
2023-05-11T04:25:27.556Z,10.95
2023-05-11T04:28:31.646Z,10.50
2023-05-11T04:31:47.611Z,9.17
2023-05-11T04:35:03.629Z,10.37
2023-05-11T04:38:22.660Z,10.10
2023-05-11T04:41:51.705Z,9.80
2023-05-11T04:45:10.714Z,9.83
2023-05-11T04:48:26.600Z,9.10
2023-05-11T04:51:45.416Z,9.77
2023-05-11T04:55:01.730Z,8.90
2023-05-11T04:58:34.642Z,8.43
2023-05-11T05:02:02.764Z,7.97
2023-05-11T05:05:34.810Z,8.25
2023-05-11T05:08:38.674Z,8.75
2023-05-11T05:11:54.739Z,8.53
2023-05-11T05:15:11.730Z,7.97
2023-05-11T05:18:28.875Z,8.40
2023-05-11T05:21:44.710Z,8.10
2023-05-11T05:25:00.809Z,7.15
2023-05-11T05:28:17.871Z,7.40
2023-05-11T05:31:52.761Z,8.63
2023-05-11T05:35:11.820Z,8.80
2023-05-11T05:38:27.816Z,8.17
2023-05-11T05:41:43.799Z,9.37
2023-05-11T05:45:00.013Z,8.90
2023-05-11T05:48:29.815Z,9.00
2023-05-11T05:51:45.775Z,9.43
2023-05-11T05:55:02.026Z,9.73
2023-05-11T05:58:30.784Z,8.73
2023-05-11T06:01:46.950Z,9.35
2023-05-11T06:05:19.905Z,8.75
2023-05-11T06:08:36.131Z,9.55
2023-05-11T06:11:54.987Z,9.77
2023-05-11T06:15:11.056Z,10.65
2023-05-11T06:18:28.023Z,9.40
2023-05-11T06:21:59.870Z,9.40
2023-05-11T06:25:19.005Z,8.90
2023-05-11T06:28:35.033Z,9.57
2023-05-11T06:31:53.988Z,9.53
2023-05-11T06:35:09.994Z,8.70
2023-05-11T06:38:43.067Z,8.33
2023-05-11T06:42:02.317Z,8.95
2023-05-11T06:45:18.023Z,8.55
2023-05-11T06:48:46.092Z,8.35
2023-05-11T06:52:05.013Z,8.60
2023-05-11T06:55:25.076Z,8.93
2023-05-11T06:58:40.999Z,9.27
2023-05-11T07:01:57.195Z,7.90
2023-05-11T07:05:16.119Z,9.17
2023-05-11T07:08:19.992Z,8.20
2023-05-11T07:11:52.083Z,8.05
2023-05-11T07:14:55.879Z,7.97
2023-05-11T07:18:15.315Z,8.05
2023-05-11T07:21:19.032Z,7.80
2023-05-11T07:24:38.076Z,7.75
2023-05-11T07:27:58.088Z,8.70
2023-05-11T07:31:14.165Z,7.60
2023-05-11T07:34:18.232Z,8.10
2023-05-11T07:37:34.213Z,7.80
2023-05-11T07:40:38.212Z,7.60
2023-05-11T07:44:10.132Z,8.30
2023-05-11T07:47:14.224Z,8.07
2023-05-11T07:50:30.168Z,8.00
2023-05-11T07:53:34.254Z,7.60
2023-05-11T07:56:53.199Z,7.10
2023-05-11T08:00:13.313Z,7.40
2023-05-11T08:03:32.292Z,7.80
2023-05-11T08:06:36.210Z,7.20
2023-05-11T08:09:55.288Z,6.60
2023-05-11T08:13:11.227Z,6.60
2023-05-11T08:16:31.301Z,6.20
2023-05-11T08:19:35.363Z,6.15
2023-05-11T08:22:54.082Z,5.57
2023-05-11T08:26:28.212Z,6.40
2023-05-11T08:30:06.190Z,5.50
2023-05-11T08:33:37.462Z,5.20
2023-05-11T08:36:45.277Z,5.85
2023-05-11T08:39:49.372Z,5.60
2023-05-11T08:43:17.316Z,5.13
2023-05-11T08:46:33.436Z,4.40
2023-05-11T08:50:06.492Z,4.73
2023-05-11T08:53:10.363Z,4.80
2023-05-11T08:56:39.351Z,4.30
2023-05-11T08:59:55.391Z,4.37
2023-05-11T09:03:29.418Z,4.13
2023-05-11T09:06:49.505Z,4.50
2023-05-11T09:10:08.417Z,4.03
2023-05-11T09:13:12.470Z,4.50
2023-05-11T09:16:36.658Z,3.90
2023-05-11T09:19:33.499Z,4.00
2023-05-11T09:23:02.443Z,4.10
2023-05-11T09:26:06.441Z,4.00
2023-05-11T09:29:22.545Z,4.10
2023-05-11T09:32:26.613Z,3.97
2023-05-11T09:35:57.611Z,4.05
2023-05-11T09:39:16.701Z,4.27
2023-05-11T09:42:42.530Z,3.90
2023-05-11T09:46:05.608Z,4.00
2023-05-11T09:49:34.597Z,4.05
2023-05-11T09:52:38.617Z,3.90
2023-05-11T09:56:17.502Z,3.43
2023-05-11T09:59:26.795Z,3.57
2023-05-11T10:03:09.216Z,3.80
2023-05-11T10:06:52.189Z,4.00
2023-05-11T10:10:36.455Z,3.25
2023-05-11T10:14:24.616Z,3.63
2023-05-11T10:17:48.621Z,3.90
2023-05-11T10:21:28.112Z,4.07
2023-05-11T10:24:53.774Z,3.90
2023-05-11T10:28:38.454Z,4.60
2023-05-11T10:32:06.013Z,4.60
2023-05-11T10:35:38.723Z,4.20
2023-05-11T10:38:54.681Z,4.20
2023-05-11T10:42:27.768Z,4.50
2023-05-11T10:45:43.800Z,4.07
2023-05-11T10:49:27.862Z,3.90
2023-05-11T10:52:52.956Z,4.40
2023-05-11T10:56:31.866Z,5.10
2023-05-11T10:59:49.854Z,4.20
2023-05-11T11:03:20.780Z,4.00
2023-05-11T11:06:49.843Z,6.10
2023-05-11T11:10:19.037Z,4.53
2023-05-11T11:13:34.824Z,4.87
2023-05-11T11:17:05.887Z,5.75
2023-05-11T11:20:21.870Z,5.50
2023-05-11T11:24:15.766Z,5.50
2023-05-11T11:27:31.880Z,5.35
2023-05-11T11:30:50.905Z,6.23
2023-05-11T11:33:54.873Z,5.43
2023-05-11T11:37:31.950Z,6.57
2023-05-11T11:40:54.095Z,6.20
2023-05-11T11:44:24.982Z,6.77
2023-05-11T11:47:40.935Z,6.95
2023-05-11T11:51:15.977Z,6.97
2023-05-11T11:54:31.982Z,8.55
2023-05-11T11:58:16.075Z,7.10
2023-05-11T12:01:32.018Z,7.37
2023-05-11T12:05:07.221Z,7.17
2023-05-11T12:08:22.994Z,7.47
2023-05-11T12:11:53.943Z,7.83
2023-05-11T12:15:10.949Z,8.15
2023-05-11T12:18:50.038Z,7.93
2023-05-11T12:22:06.101Z,7.65
2023-05-11T12:25:37.121Z,7.37
2023-05-11T12:28:41.141Z,7.33
2023-05-11T12:32:16.234Z,7.63
2023-05-11T12:35:20.219Z,7.55
2023-05-11T12:38:39.173Z,7.20
2023-05-11T12:41:43.081Z,6.75
2023-05-11T12:45:14.161Z,6.27
2023-05-11T12:48:34.079Z,6.40
2023-05-11T12:52:27.078Z,6.23
2023-05-11T12:55:53.150Z,6.00
2023-05-11T12:59:09.245Z,5.17
2023-05-11T13:02:42.265Z,5.20
2023-05-11T13:06:15.150Z,4.97
2023-05-11T13:09:30.973Z,5.47
2023-05-11T13:12:50.200Z,4.83
2023-05-11T13:16:19.164Z,4.70
2023-05-11T13:19:54.203Z,4.50
2023-05-11T13:23:16.166Z,4.50
2023-05-11T13:26:49.200Z,4.03
2023-05-11T13:30:05.255Z,4.07
2023-05-11T13:33:24.922Z,4.05
2023-05-11T13:36:42.474Z,4.73
2023-05-11T13:40:27.155Z,4.23
2023-05-11T13:43:31.507Z,4.40
2023-05-11T13:47:02.272Z,3.95
2023-05-11T13:50:07.363Z,4.67
2023-05-11T13:53:26.298Z,4.53
2023-05-11T13:56:43.413Z,4.40
2023-05-11T14:00:35.496Z,3.80
2023-05-11T14:03:52.493Z,3.50
2023-05-11T14:06:56.332Z,3.37
2023-05-11T14:10:15.440Z,2.50
2023-05-11T14:13:32.477Z,2.90
2023-05-11T14:17:03.455Z,3.03
2023-05-11T14:20:07.431Z,2.90
2023-05-11T14:23:26.531Z,3.23
2023-05-11T14:26:30.373Z,2.73
2023-05-11T14:30:03.500Z,2.60
2023-05-11T14:33:07.485Z,2.50
2023-05-11T14:36:26.525Z,2.90
2023-05-11T14:39:30.492Z,3.00
2023-05-11T14:42:46.456Z,2.70
2023-05-11T14:46:03.483Z,3.03
2023-05-11T14:49:19.523Z,3.00
2023-05-11T14:52:23.870Z,2.80
2023-05-11T14:55:54.588Z,2.70
2023-05-11T14:58:58.539Z,2.25
2023-05-11T15:02:28.763Z,3.07
2023-05-11T15:05:32.366Z,3.20
2023-05-11T15:08:51.630Z,3.03
2023-05-11T15:11:55.617Z,2.90
2023-05-11T15:15:11.503Z,2.90
2023-05-11T15:18:29.710Z,2.80
2023-05-11T15:21:48.606Z,3.00
2023-05-11T15:24:52.664Z,2.60
2023-05-11T15:28:11.658Z,2.67
2023-05-11T15:31:15.772Z,2.33
2023-05-11T15:34:59.105Z,2.30
2023-05-11T15:37:54.605Z,2.13
2023-05-11T15:41:11.489Z,1.80
2023-05-11T15:44:27.962Z,1.65
2023-05-11T15:47:58.668Z,2.20
2023-05-11T15:51:15.788Z,2.10
2023-05-11T15:54:36.056Z,2.15
2023-05-11T15:57:49.380Z,2.27
2023-05-11T16:01:09.801Z,2.30
2023-05-11T16:04:26.726Z,2.30
2023-05-11T16:07:43.879Z,2.33
2023-05-11T16:11:11.765Z,2.40
2023-05-11T16:14:15.748Z,2.10
2023-05-11T16:17:34.818Z,2.10
2023-05-11T16:20:50.867Z,1.85
2023-05-11T16:24:25.697Z,1.77
2023-05-11T16:27:29.817Z,1.97
2023-05-11T16:30:59.310Z,1.80
2023-05-11T16:34:01.764Z,2.27
2023-05-11T16:37:32.849Z,1.70
2023-05-11T16:40:49.798Z,2.20
2023-05-11T16:44:08.869Z,2.20
2023-05-11T16:47:12.920Z,1.73
2023-05-11T16:50:31.931Z,1.90
2023-05-11T16:53:47.927Z,1.70
2023-05-11T16:57:22.935Z,2.13
2023-05-11T17:00:39.881Z,2.00
2023-05-11T17:03:59.110Z,1.97
2023-05-11T17:07:14.988Z,2.17
2023-05-11T17:10:31.900Z,1.90
2023-05-11T17:13:49.052Z,2.37
2023-05-11T17:17:08.072Z,1.85
2023-05-11T17:20:11.919Z,2.40
2023-05-11T17:23:30.992Z,1.70
2023-05-11T17:26:48.538Z,1.90
2023-05-11T17:30:21.021Z,2.20
2023-05-11T17:33:36.118Z,2.23
2023-05-11T17:36:52.093Z,2.10
2023-05-11T17:39:56.165Z,2.00
2023-05-11T17:43:15.270Z,2.60
2023-05-11T17:46:50.162Z,2.20
2023-05-11T17:50:06.042Z,2.23
2023-05-11T17:53:10.022Z,2.40
2023-05-11T17:56:29.033Z,2.50
2023-05-11T17:59:33.002Z,2.35
2023-05-11T18:03:08.267Z,2.20
2023-05-11T18:06:36.056Z,2.20
2023-05-11T18:09:40.063Z,2.10
2023-05-11T18:12:57.205Z,2.20
2023-05-11T18:16:13.095Z,2.70
2023-05-11T18:19:46.129Z,2.20
2023-05-11T18:22:50.192Z,2.20
2023-05-11T18:26:07.154Z,2.53
2023-05-11T18:29:11.128Z,2.50
2023-05-11T18:32:27.154Z,2.50
2023-05-11T18:35:46.248Z,3.40
2023-05-11T18:39:03.160Z,3.13
2023-05-11T18:42:07.168Z,4.70
2023-05-11T18:45:39.304Z,3.57
2023-05-11T18:48:43.213Z,4.17
2023-05-11T18:52:18.285Z,4.13
2023-05-11T18:55:51.994Z,4.50
2023-05-11T18:58:54.270Z,4.30
2023-05-11T19:01:58.474Z,5.10
2023-05-11T19:05:17.298Z,4.65
2023-05-11T19:08:34.320Z,5.85
2023-05-11T19:11:51.266Z,5.60
2023-05-11T19:14:55.268Z,5.07
2023-05-11T19:18:14.347Z,4.80
2023-05-11T19:21:30.366Z,5.40
2023-05-11T19:25:02.585Z,5.20
2023-05-11T19:28:06.587Z,5.20
2023-05-11T19:31:28.647Z,4.87
2023-05-11T19:34:32.421Z,5.00
2023-05-11T19:37:49.448Z,5.55
2023-05-11T19:41:06.454Z,5.50
2023-05-11T19:44:25.384Z,5.80
2023-05-11T19:47:41.500Z,5.27
2023-05-11T19:50:57.403Z,5.07
2023-05-11T19:54:01.518Z,5.43
2023-05-11T19:57:37.497Z,5.73
2023-05-11T20:00:41.473Z,5.37
2023-05-11T20:03:57.697Z,5.30
2023-05-11T20:07:01.503Z,5.95
2023-05-11T20:10:20.661Z,5.80
2023-05-11T20:13:37.450Z,6.05
2023-05-11T20:16:54.559Z,5.43
2023-05-11T20:19:58.517Z,6.63
2023-05-11T20:23:26.487Z,6.80
2023-05-11T20:26:30.593Z,7.00
2023-05-11T20:30:03.005Z,6.43
2023-05-11T20:36:31.564Z,5.90
2023-05-11T20:39:47.511Z,6.30
2023-05-11T20:43:06.658Z,5.60
2023-05-11T20:46:23.648Z,5.67
2023-05-11T20:49:39.678Z,6.30
2023-05-11T20:52:43.576Z,5.50
2023-05-11T20:56:00.667Z,6.50
2023-05-11T20:59:03.662Z,5.90
2023-05-11T21:02:35.675Z,5.50
2023-05-11T21:05:39.606Z,5.77
2023-05-11T21:08:56.720Z,5.55
2023-05-11T21:12:00.616Z,5.40
2023-05-11T21:15:34.680Z,5.77
2023-05-11T21:18:51.820Z,6.00
2023-05-11T21:22:11.796Z,5.80
2023-05-11T21:25:27.691Z,5.50
2023-05-11T21:28:46.882Z,5.70
2023-05-11T21:31:50.883Z,5.80
2023-05-11T21:35:22.903Z,5.30
2023-05-11T21:38:38.860Z,4.93
2023-05-11T21:41:57.780Z,6.10
2023-05-11T21:45:01.847Z,5.37
2023-05-11T21:48:21.861Z,8.05
2023-05-11T21:51:38.886Z,6.50
2023-05-11T21:54:57.853Z,6.50
2023-05-11T21:58:01.810Z,6.13
2023-05-11T22:01:17.900Z,6.20
2023-05-11T22:04:36.833Z,6.00
2023-05-11T22:08:03.290Z,6.90
2023-05-11T22:11:15.652Z,6.40
2023-05-11T22:14:19.862Z,6.95
2023-05-11T22:17:36.854Z,7.45
2023-05-11T22:20:40.859Z,6.85
2023-05-11T22:24:13.832Z,7.00
2023-05-11T22:27:18.252Z,6.60
2023-05-11T22:30:48.902Z,7.65
2023-05-11T22:33:52.896Z,7.30
2023-05-11T22:37:24.076Z,6.93
2023-05-11T22:40:41.934Z,7.10
2023-05-11T22:44:01.073Z,6.20
2023-05-11T22:47:17.162Z,6.70
2023-05-11T22:50:36.027Z,6.80
2023-05-11T22:53:39.944Z,6.10
2023-05-11T22:57:15.083Z,6.60
2023-05-11T23:00:19.268Z,5.47
2023-05-11T23:03:35.150Z,5.43
2023-05-11T23:06:39.062Z,6.10
2023-05-11T23:09:58.057Z,5.80
2023-05-11T23:13:16.127Z,5.40
2023-05-11T23:16:35.154Z,5.70
2023-05-11T23:19:39.310Z,5.90
2023-05-11T23:22:58.081Z,6.00
2023-05-11T23:26:02.037Z,5.83
2023-05-11T23:29:37.326Z,5.30
2023-05-11T23:32:41.097Z,5.60
2023-05-11T23:35:57.092Z,5.75
2023-05-11T23:39:13.198Z,4.95
2023-05-11T23:42:29.149Z,5.30
2023-05-11T23:45:49.232Z,5.10
2023-05-11T23:49:08.220Z,5.50
2023-05-11T23:52:12.112Z,5.10
2023-05-11T23:55:31.283Z,5.30
2023-05-11T23:58:35.249Z,5.95
